createdAt,value
2019-05-17T00:00:00.305Z,6.83
2019-05-17T00:02:28.161Z,6.62
2019-05-17T00:04:56.416Z,7.00
2019-05-17T00:07:24.306Z,6.70
2019-05-17T00:09:52.125Z,7.05
2019-05-17T00:12:19.778Z,7.20
2019-05-17T00:14:47.646Z,6.22
2019-05-17T00:17:17.377Z,6.17
2019-05-17T00:19:46.468Z,6.53
2019-05-17T00:22:16.530Z,6.70
2019-05-17T00:24:44.118Z,6.65
2019-05-17T00:27:11.815Z,6.75
2019-05-17T00:29:39.590Z,7.25
2019-05-17T00:32:07.527Z,7.12
2019-05-17T00:34:37.497Z,7.25
2019-05-17T00:37:06.815Z,7.45
2019-05-17T00:39:36.499Z,6.97
2019-05-17T00:42:03.993Z,7.42
2019-05-17T00:44:31.877Z,7.10
2019-05-17T00:46:59.666Z,7.08
2019-05-17T00:49:28.383Z,7.20
2019-05-17T00:51:56.759Z,7.03
2019-05-17T00:54:26.790Z,7.20
2019-05-17T00:56:56.541Z,7.25
2019-05-17T00:59:26.194Z,7.60
2019-05-17T01:01:53.450Z,8.10
2019-05-17T01:04:21.430Z,7.15
2019-05-17T01:06:49.206Z,7.05
2019-05-17T01:09:17.214Z,7.50
2019-05-17T01:11:47.182Z,7.87
2019-05-17T01:14:17.337Z,8.00
2019-05-17T01:16:44.357Z,7.40
2019-05-17T01:19:13.076Z,7.20
2019-05-17T01:21:40.727Z,7.15
2019-05-17T01:24:09.938Z,7.33
2019-05-17T01:26:37.563Z,7.12
2019-05-17T01:29:06.727Z,7.87
2019-05-17T01:31:34.585Z,7.72
2019-05-17T01:34:02.203Z,7.25
2019-05-17T01:36:29.993Z,7.22
2019-05-17T01:38:57.820Z,7.55
2019-05-17T01:41:26.692Z,7.65
2019-05-17T01:43:56.784Z,7.87
2019-05-17T01:46:26.386Z,7.75
2019-05-17T01:48:54.012Z,7.70
2019-05-17T01:51:21.635Z,8.03
2019-05-17T01:53:49.443Z,8.43
2019-05-17T01:56:17.343Z,8.25
2019-05-17T01:58:47.026Z,8.25
2019-05-17T02:01:17.161Z,8.93
2019-05-17T02:03:46.967Z,9.13
2019-05-17T02:06:16.553Z,8.78
2019-05-17T02:08:44.462Z,9.98
2019-05-17T02:11:12.027Z,9.10
2019-05-17T02:13:39.893Z,9.98
2019-05-17T02:16:07.733Z,10.18
2019-05-17T02:18:37.247Z,10.15
2019-05-17T02:21:06.540Z,10.72
2019-05-17T02:23:36.959Z,10.88
2019-05-17T02:26:06.658Z,10.72
2019-05-17T02:28:34.658Z,10.78
2019-05-17T02:31:03.471Z,12.03
2019-05-17T02:33:33.314Z,10.95
2019-05-17T02:36:02.707Z,10.40
2019-05-17T02:38:33.193Z,10.43
2019-05-17T02:41:14.125Z,10.95
2019-05-17T02:43:43.365Z,10.65
2019-05-17T02:46:13.687Z,11.35
2019-05-17T02:48:42.853Z,10.78
2019-05-17T02:51:13.132Z,10.68
2019-05-17T02:53:42.935Z,11.43
2019-05-17T02:56:13.402Z,10.88
2019-05-17T02:58:39.915Z,10.70
2019-05-17T03:01:07.699Z,10.70
2019-05-17T03:03:35.434Z,12.45
2019-05-17T03:06:03.553Z,11.35
2019-05-17T03:08:34.377Z,10.98
2019-05-17T03:11:03.491Z,11.88
2019-05-17T03:13:32.907Z,11.05
2019-05-17T03:16:03.454Z,11.10
2019-05-17T03:18:33.412Z,11.20
2019-05-17T03:21:03.736Z,10.18
2019-05-17T03:23:32.838Z,10.32
2019-05-17T03:26:03.196Z,10.30
2019-05-17T03:28:29.766Z,10.70
2019-05-17T03:30:57.502Z,10.05
2019-05-17T03:33:27.352Z,10.40
2019-05-17T03:35:57.153Z,10.68
2019-05-17T03:38:25.345Z,10.10
2019-05-17T03:41:18.720Z,9.98
2019-05-17T03:43:22.803Z,9.58
2019-05-17T03:45:53.331Z,10.40
2019-05-17T03:48:22.196Z,10.55
2019-05-17T03:50:52.858Z,9.75
2019-05-17T03:53:26.876Z,9.90
2019-05-17T03:56:02.684Z,9.93
2019-05-17T03:58:33.400Z,9.15
2019-05-17T04:01:04.120Z,9.95
2019-05-17T04:03:35.317Z,8.88
2019-05-17T04:06:03.819Z,9.18
2019-05-17T04:08:33.637Z,9.33
2019-05-17T04:11:17.603Z,9.18
2019-05-17T04:13:33.738Z,8.38
2019-05-17T04:16:05.850Z,8.75
2019-05-17T04:18:33.474Z,8.50
2019-05-17T04:21:03.346Z,8.15
2019-05-17T04:23:33.916Z,8.98
2019-05-17T04:26:04.114Z,8.30
2019-05-17T04:28:33.502Z,9.05
2019-05-17T04:31:16.876Z,9.48
2019-05-17T04:33:45.398Z,8.50
2019-05-17T04:36:14.274Z,8.53
2019-05-17T04:38:43.644Z,8.65
2019-05-17T04:41:13.472Z,9.15
2019-05-17T04:43:43.378Z,8.43
2019-05-17T04:46:13.042Z,9.18
2019-05-17T04:48:43.871Z,8.55
2019-05-17T04:51:13.211Z,9.43
2019-05-17T04:53:43.106Z,9.38
2019-05-17T04:56:14.043Z,9.18
2019-05-17T04:58:42.869Z,9.60
2019-05-17T05:01:12.957Z,9.65
2019-05-17T05:03:42.743Z,9.38
2019-05-17T05:06:13.083Z,10.23
2019-05-17T05:08:42.469Z,10.18
2019-05-17T05:11:12.448Z,10.13
2019-05-17T05:13:39.022Z,11.05
2019-05-17T05:16:06.634Z,10.82
2019-05-17T05:18:34.279Z,10.75
2019-05-17T05:21:03.624Z,10.15
2019-05-17T05:23:31.915Z,11.75
2019-05-17T05:26:11.854Z,10.75
2019-05-17T05:28:41.788Z,11.22
2019-05-17T05:31:09.119Z,10.82
2019-05-17T05:33:36.968Z,10.65
2019-05-17T05:36:04.578Z,11.43
2019-05-17T05:38:36.835Z,11.18
2019-05-17T05:41:04.673Z,11.22
2019-05-17T05:43:33.382Z,11.70
2019-05-17T05:46:02.632Z,12.70
2019-05-17T05:48:32.579Z,10.88
2019-05-17T05:51:03.162Z,12.45
2019-05-17T05:53:32.378Z,11.35
2019-05-17T05:56:02.917Z,12.35
2019-05-17T05:58:32.030Z,13.03
2019-05-17T06:01:02.045Z,13.00
2019-05-17T06:03:32.015Z,13.38
2019-05-17T06:06:01.835Z,13.65
2019-05-17T06:08:31.994Z,13.58
2019-05-17T06:11:02.166Z,14.47
2019-05-17T06:13:32.343Z,14.20
2019-05-17T06:15:59.655Z,13.32
2019-05-17T06:18:27.265Z,13.78
2019-05-17T06:20:55.143Z,13.62
2019-05-17T06:23:23.622Z,13.72
2019-05-17T06:25:52.170Z,14.33
2019-05-17T06:28:22.164Z,14.23
2019-05-17T06:30:52.370Z,14.83
2019-05-17T06:33:28.092Z,14.47
2019-05-17T06:35:49.643Z,14.55
2019-05-17T06:38:19.211Z,14.78
2019-05-17T06:40:47.022Z,13.60
2019-05-17T06:43:14.856Z,14.50
2019-05-17T06:45:42.638Z,13.03
2019-05-17T06:48:11.703Z,14.45
2019-05-17T06:50:42.566Z,13.83
2019-05-17T06:53:12.116Z,13.72
2019-05-17T06:55:42.130Z,14.53
2019-05-17T06:58:11.608Z,14.30
2019-05-17T07:00:40.408Z,13.38
2019-05-17T07:03:09.660Z,14.28
2019-05-17T07:05:42.662Z,14.73
2019-05-17T07:08:11.004Z,14.80
2019-05-17T07:10:39.827Z,14.68
2019-05-17T07:13:10.331Z,14.33
2019-05-17T07:15:44.702Z,14.35
2019-05-17T07:18:07.243Z,15.32
2019-05-17T07:20:36.303Z,15.08
2019-05-17T07:23:03.998Z,16.12
2019-05-17T07:25:32.687Z,14.23
2019-05-17T07:28:00.660Z,15.00
2019-05-17T07:30:30.534Z,14.45
2019-05-17T07:33:00.326Z,15.28
2019-05-17T07:35:30.018Z,15.10
2019-05-17T07:37:59.527Z,15.28
2019-05-17T07:40:27.370Z,15.35
2019-05-17T07:43:06.925Z,15.32
2019-05-17T07:45:24.960Z,14.63
2019-05-17T07:47:52.679Z,14.15
2019-05-17T07:50:21.221Z,14.47
2019-05-17T07:52:49.979Z,14.80
2019-05-17T07:55:22.505Z,13.80
2019-05-17T07:57:49.513Z,15.80
2019-05-17T08:00:19.947Z,13.72
2019-05-17T08:02:47.203Z,14.23
2019-05-17T08:05:15.422Z,13.83
2019-05-17T08:07:43.141Z,14.75
2019-05-17T08:10:12.725Z,14.20
2019-05-17T08:12:41.079Z,15.15
2019-05-17T08:15:10.677Z,15.15
2019-05-17T08:17:39.614Z,14.90
2019-05-17T08:20:10.052Z,13.60
2019-05-17T08:22:39.938Z,13.90
2019-05-17T08:25:10.018Z,13.68
2019-05-17T08:27:40.195Z,13.78
2019-05-17T08:30:10.206Z,14.18
2019-05-17T08:32:40.095Z,13.13
2019-05-17T08:35:07.617Z,12.53
2019-05-17T08:37:35.415Z,12.15
2019-05-17T08:40:03.563Z,12.98
2019-05-17T08:42:31.278Z,12.55
2019-05-17T08:45:01.950Z,12.03
2019-05-17T08:47:31.427Z,12.73
2019-05-17T08:50:00.515Z,13.00
2019-05-17T08:52:29.411Z,12.98
2019-05-17T08:55:00.370Z,12.53
2019-05-17T08:57:30.306Z,12.75
2019-05-17T09:00:00.943Z,12.40
2019-05-17T09:02:29.946Z,12.90
2019-05-17T09:05:00.271Z,12.25
2019-05-17T09:07:29.559Z,12.28
2019-05-17T09:09:57.308Z,11.85
2019-05-17T09:12:30.008Z,11.20
2019-05-17T09:15:00.248Z,11.18
2019-05-17T09:17:29.859Z,11.12
2019-05-17T09:20:00.682Z,11.73
2019-05-17T09:22:30.562Z,12.40
2019-05-17T09:24:59.567Z,11.22
2019-05-17T09:27:27.424Z,11.38
2019-05-17T09:29:55.256Z,10.72
2019-05-17T09:32:22.961Z,9.50
2019-05-17T09:34:50.783Z,9.25
2019-05-17T09:37:22.123Z,8.05
2019-05-17T09:39:49.285Z,8.15
2019-05-17T09:42:17.090Z,8.65
2019-05-17T09:44:49.573Z,9.65
2019-05-17T09:47:17.153Z,9.68
2019-05-17T09:49:44.815Z,10.38
2019-05-17T09:52:12.625Z,8.78
2019-05-17T09:54:45.008Z,8.95
2019-05-17T09:57:10.080Z,8.20
2019-05-17T09:59:37.834Z,7.67
2019-05-17T10:02:09.505Z,8.53
2019-05-17T10:04:39.397Z,7.65
2019-05-17T10:07:07.242Z,7.75
2019-05-17T10:09:40.008Z,7.30
2019-05-17T10:12:09.528Z,7.37
2019-05-17T10:14:37.501Z,7.80
2019-05-17T10:17:06.316Z,6.92
2019-05-17T10:19:34.190Z,7.45
2019-05-17T10:22:03.541Z,7.15
2019-05-17T10:24:38.001Z,7.80
2019-05-17T10:27:01.541Z,7.53
2019-05-17T10:29:29.974Z,7.53
2019-05-17T10:31:59.848Z,7.45
2019-05-17T10:34:29.433Z,7.40
2019-05-17T10:36:57.250Z,7.47
2019-05-17T10:39:25.027Z,5.62
2019-05-17T10:41:52.853Z,5.90
2019-05-17T10:44:20.728Z,7.00
2019-05-17T10:46:48.745Z,6.12
2019-05-17T10:49:17.485Z,6.28
2019-05-17T10:51:45.499Z,5.95
2019-05-17T10:54:14.176Z,5.92
2019-05-17T10:56:42.143Z,6.58
2019-05-17T10:59:10.021Z,5.87
2019-05-17T11:01:37.868Z,5.85
2019-05-17T11:04:05.518Z,6.37
2019-05-17T11:06:33.362Z,6.37
2019-05-17T11:09:01.031Z,5.47
2019-05-17T11:11:32.180Z,5.53
2019-05-17T11:14:01.752Z,5.85
2019-05-17T11:16:29.551Z,5.70
2019-05-17T11:19:00.211Z,5.67
2019-05-17T11:21:28.078Z,5.85
2019-05-17T11:23:56.758Z,5.05
2019-05-17T11:26:24.556Z,6.17
2019-05-17T11:28:52.502Z,6.25
2019-05-17T11:31:20.222Z,4.67
2019-05-17T11:33:48.189Z,5.08
2019-05-17T11:36:16.224Z,5.17
2019-05-17T11:38:44.108Z,5.15
2019-05-17T11:41:20.921Z,4.83
2019-05-17T11:43:41.855Z,4.87
2019-05-17T11:46:10.824Z,5.17
2019-05-17T11:48:38.809Z,5.40
2019-05-17T11:51:06.818Z,5.40
2019-05-17T11:53:34.489Z,4.30
2019-05-17T11:56:03.370Z,4.40
2019-05-17T11:58:31.087Z,5.15
2019-05-17T12:00:58.809Z,5.10
2019-05-17T12:03:26.467Z,4.67
2019-05-17T12:05:54.170Z,4.97
2019-05-17T12:08:23.029Z,4.75
2019-05-17T12:10:51.187Z,4.53
2019-05-17T12:13:22.105Z,4.83
2019-05-17T12:15:49.890Z,5.58
2019-05-17T12:18:17.661Z,6.22
2019-05-17T12:20:50.288Z,5.35
2019-05-17T12:23:18.576Z,4.90
2019-05-17T12:25:51.206Z,5.17
2019-05-17T12:28:19.321Z,4.22
2019-05-17T12:30:47.207Z,5.05
2019-05-17T12:33:20.607Z,5.45
2019-05-17T12:35:48.219Z,5.30
2019-05-17T12:38:16.256Z,4.58
2019-05-17T12:40:44.246Z,4.50
2019-05-17T12:43:12.046Z,5.12
2019-05-17T12:45:41.185Z,5.37
2019-05-17T12:48:09.144Z,5.53
2019-05-17T12:50:37.109Z,5.55
2019-05-17T12:53:04.846Z,5.92
2019-05-17T12:55:32.655Z,4.97
2019-05-17T12:58:00.460Z,4.78
2019-05-17T13:00:28.699Z,5.15
2019-05-17T13:02:56.710Z,5.00
2019-05-17T13:05:24.539Z,5.10
2019-05-17T13:07:52.251Z,4.85
2019-05-17T13:10:20.469Z,4.62
2019-05-17T13:12:49.135Z,4.67
2019-05-17T13:15:20.715Z,5.00
2019-05-17T13:17:48.582Z,5.15
2019-05-17T13:20:17.080Z,5.60
2019-05-17T13:22:45.162Z,4.95
2019-05-17T13:25:13.339Z,5.78
2019-05-17T13:27:41.313Z,5.95
2019-05-17T13:30:10.475Z,5.75
2019-05-17T13:32:38.777Z,6.62
2019-05-17T13:35:06.973Z,6.42
2019-05-17T13:37:34.903Z,5.85
2019-05-17T13:40:03.241Z,5.62
2019-05-17T13:42:31.268Z,5.53
2019-05-17T13:44:59.331Z,5.60
2019-05-17T13:47:27.077Z,5.70
2019-05-17T13:49:54.941Z,5.70
2019-05-17T13:52:25.688Z,7.00
2019-05-17T13:54:56.594Z,6.15
2019-05-17T13:57:25.467Z,4.85
2019-05-17T13:59:53.461Z,5.30
2019-05-17T14:02:21.352Z,5.87
2019-05-17T14:04:49.336Z,6.28
2019-05-17T14:07:17.707Z,5.42
2019-05-17T14:09:45.389Z,5.50
2019-05-17T14:12:13.136Z,5.87
2019-05-17T14:14:41.309Z,5.65
2019-05-17T14:17:09.243Z,5.60
2019-05-17T14:19:37.144Z,5.95
2019-05-17T14:22:12.103Z,5.62
2019-05-17T14:24:39.999Z,4.78
2019-05-17T14:27:07.918Z,5.40
2019-05-17T14:29:35.779Z,5.00
2019-05-17T14:32:03.939Z,5.00
2019-05-17T14:34:31.736Z,4.45
2019-05-17T14:36:59.698Z,4.67
2019-05-17T14:39:27.478Z,5.10
2019-05-17T14:41:55.235Z,4.50
2019-05-17T14:44:23.124Z,4.47
2019-05-17T14:46:50.969Z,4.92
2019-05-17T14:49:18.942Z,4.83
2019-05-17T14:51:46.754Z,4.62
2019-05-17T14:54:14.591Z,5.30
2019-05-17T14:56:42.635Z,4.62
2019-05-17T14:59:10.474Z,4.12
2019-05-17T15:01:38.166Z,4.70
2019-05-17T15:04:05.930Z,5.37
2019-05-17T15:06:33.617Z,5.12
2019-05-17T15:09:01.350Z,4.62
2019-05-17T15:11:31.032Z,4.75
2019-05-17T15:13:59.095Z,6.30
2019-05-17T15:16:26.806Z,4.37
2019-05-17T15:18:55.619Z,3.85
2019-05-17T15:21:23.599Z,4.05
2019-05-17T15:23:51.394Z,3.75
2019-05-17T15:26:19.304Z,4.60
2019-05-17T15:28:47.187Z,4.15
2019-05-17T15:31:15.287Z,5.20
2019-05-17T15:33:43.168Z,4.62
2019-05-17T15:36:10.860Z,4.03
2019-05-17T15:38:58.079Z,4.10
2019-05-17T15:41:25.952Z,5.83
2019-05-17T15:43:53.756Z,5.15
2019-05-17T15:46:21.843Z,4.83
2019-05-17T15:48:49.516Z,4.10
2019-05-17T15:51:17.462Z,3.75
2019-05-17T15:53:45.207Z,4.50
2019-05-17T15:56:12.882Z,4.65
2019-05-17T15:58:40.800Z,4.50
2019-05-17T16:01:08.506Z,4.65
2019-05-17T16:03:36.479Z,3.98
2019-05-17T16:07:32.762Z,4.33
2019-05-17T16:10:08.178Z,4.60
2019-05-17T16:12:35.903Z,4.20
2019-05-17T16:15:04.330Z,4.42
2019-05-17T16:17:32.238Z,4.95
2019-05-17T16:20:00.045Z,4.35
2019-05-17T16:22:30.336Z,4.10
2019-05-17T16:24:58.144Z,3.30
2019-05-17T16:27:26.312Z,3.35
2019-05-17T16:29:54.327Z,3.60
2019-05-17T16:32:22.200Z,3.72
2019-05-17T16:34:51.053Z,3.50
2019-05-17T16:37:18.985Z,3.95
2019-05-17T16:39:49.569Z,3.72
2019-05-17T16:42:17.488Z,3.30
2019-05-17T16:44:46.594Z,3.62
2019-05-17T16:47:14.745Z,3.52
2019-05-17T16:49:45.463Z,3.50
2019-05-17T16:52:14.511Z,3.00
2019-05-17T16:54:42.525Z,3.05
2019-05-17T16:57:10.797Z,3.50
2019-05-17T16:59:39.523Z,3.60
2019-05-17T17:02:07.470Z,3.50
2019-05-17T17:04:35.520Z,3.52
2019-05-17T17:07:03.716Z,3.15
2019-05-17T17:09:31.553Z,2.95
2019-05-17T17:12:00.493Z,3.35
2019-05-17T17:14:28.731Z,3.30
2019-05-17T17:16:56.447Z,3.08
2019-05-17T17:19:24.139Z,3.08
2019-05-17T17:21:52.072Z,2.98
2019-05-17T17:24:19.730Z,2.98
2019-05-17T17:26:47.466Z,2.72
2019-05-17T17:29:17.241Z,3.10
2019-05-17T17:31:45.016Z,3.12
2019-05-17T17:34:12.827Z,3.22
2019-05-17T17:36:40.801Z,2.85
2019-05-17T17:39:08.751Z,2.45
2019-05-17T17:41:36.628Z,2.77
2019-05-17T17:44:06.850Z,3.05
2019-05-17T17:46:34.808Z,3.37
2019-05-17T17:49:02.601Z,2.72
2019-05-17T17:51:30.657Z,2.80
2019-05-17T17:53:58.479Z,2.75
2019-05-17T17:56:26.274Z,3.37
2019-05-17T17:58:55.890Z,2.95
2019-05-17T18:01:23.639Z,2.80
2019-05-17T18:03:51.395Z,3.15
2019-05-17T18:06:19.442Z,2.72
2019-05-17T18:08:47.313Z,3.58
2019-05-17T18:11:15.815Z,2.62
2019-05-17T18:13:44.947Z,2.33
2019-05-17T18:16:12.735Z,3.22
2019-05-17T18:18:40.977Z,3.30
2019-05-17T18:21:08.658Z,3.00
2019-05-17T18:23:40.104Z,2.40
2019-05-17T18:26:11.793Z,2.47
2019-05-17T18:28:40.069Z,2.77
2019-05-17T18:31:11.989Z,2.42
2019-05-17T18:33:39.708Z,2.50
2019-05-17T18:36:07.443Z,2.47
2019-05-17T18:38:36.714Z,2.25
2019-05-17T18:41:04.598Z,2.50
2019-05-17T18:43:32.503Z,2.42
2019-05-17T18:46:00.228Z,2.50
2019-05-17T18:48:28.139Z,2.60
2019-05-17T18:50:56.364Z,2.70
2019-05-17T18:53:24.108Z,2.40
2019-05-17T18:55:51.899Z,2.50
2019-05-17T18:58:19.889Z,2.25
2019-05-17T19:00:47.846Z,2.22
2019-05-17T19:03:19.046Z,2.55
2019-05-17T19:05:47.062Z,2.30
2019-05-17T19:08:14.843Z,3.00
2019-05-17T19:10:42.745Z,2.67
2019-05-17T19:13:10.547Z,2.62
2019-05-17T19:15:38.400Z,2.50
2019-05-17T19:18:06.143Z,2.58
2019-05-17T19:20:33.892Z,2.67
2019-05-17T19:23:01.613Z,2.45
2019-05-17T19:25:29.218Z,2.67
2019-05-17T19:27:57.277Z,2.37
2019-05-17T19:30:25.023Z,2.60
2019-05-17T19:32:52.879Z,2.37
2019-05-17T19:35:20.809Z,2.58
2019-05-17T19:37:48.602Z,2.90
2019-05-17T19:40:16.641Z,2.00
2019-05-17T19:42:44.539Z,2.40
2019-05-17T19:45:14.369Z,2.25
2019-05-17T19:47:42.207Z,2.20
2019-05-17T19:50:10.178Z,3.83
2019-05-17T19:52:42.299Z,2.90
2019-05-17T19:55:12.600Z,2.58
2019-05-17T19:57:40.887Z,2.75
2019-05-17T20:00:09.729Z,2.30
2019-05-17T20:02:37.603Z,2.47
2019-05-17T20:05:05.748Z,2.25
2019-05-17T20:07:38.568Z,2.35
2019-05-17T20:10:03.837Z,1.98
2019-05-17T20:12:32.116Z,2.22
2019-05-17T20:15:16.069Z,1.70
2019-05-17T20:17:29.519Z,2.50
2019-05-17T20:19:57.556Z,2.02
2019-05-17T20:22:25.609Z,1.72
2019-05-17T20:24:53.510Z,1.70
2019-05-17T20:27:21.588Z,1.65
2019-05-17T20:29:49.492Z,1.70
2019-05-17T20:32:17.401Z,1.60
2019-05-17T20:34:45.248Z,1.70
2019-05-17T20:37:13.173Z,1.50
2019-05-17T20:39:41.644Z,2.30
2019-05-17T20:42:09.617Z,1.70
2019-05-17T20:44:37.606Z,1.80
2019-05-17T20:47:05.420Z,2.12
2019-05-17T20:49:33.164Z,1.90
2019-05-17T20:52:01.239Z,1.70
2019-05-17T20:54:33.034Z,1.60
2019-05-17T20:57:00.979Z,1.62
2019-05-17T20:59:28.738Z,1.82
2019-05-17T21:01:56.545Z,1.70
2019-05-17T21:04:24.457Z,2.08
2019-05-17T21:06:52.227Z,2.70
2019-05-17T21:09:20.450Z,2.00
2019-05-17T21:11:48.245Z,2.00
2019-05-17T21:14:16.102Z,2.08
2019-05-17T21:16:44.045Z,2.35
2019-05-17T21:19:11.819Z,1.85
2019-05-17T21:21:39.532Z,2.20
2019-05-17T21:24:07.415Z,2.37
2019-05-17T21:26:35.251Z,4.20
2019-05-17T21:29:03.247Z,2.30
2019-05-17T21:31:31.228Z,2.52
2019-05-17T21:33:59.134Z,2.20
2019-05-17T21:36:27.553Z,1.98
2019-05-17T21:38:55.994Z,2.02
2019-05-17T21:41:24.898Z,1.70
2019-05-17T21:43:53.263Z,2.00
2019-05-17T21:46:21.119Z,2.10
2019-05-17T21:48:48.929Z,2.10
2019-05-17T21:51:16.910Z,2.80
2019-05-17T21:53:44.645Z,2.25
2019-05-17T21:56:14.847Z,2.37
2019-05-17T21:58:44.930Z,2.37
2019-05-17T22:01:17.708Z,2.10
2019-05-17T22:03:45.617Z,2.20
2019-05-17T22:06:13.354Z,1.70
2019-05-17T22:08:41.207Z,2.00
2019-05-17T22:11:09.018Z,1.98
2019-05-17T22:13:36.973Z,2.40
2019-05-17T22:16:18.541Z,2.10
2019-05-17T22:18:34.405Z,2.30
2019-05-17T22:21:02.525Z,1.80
2019-05-17T22:23:33.552Z,2.00
2019-05-17T22:26:01.270Z,2.10
2019-05-17T22:28:28.879Z,1.87
2019-05-17T22:30:57.187Z,2.20
2019-05-17T22:33:24.992Z,2.10
2019-05-17T22:35:52.623Z,1.92
2019-05-17T22:38:20.532Z,2.00
2019-05-17T22:40:48.349Z,2.00
2019-05-17T22:43:16.057Z,1.87
2019-05-17T22:45:43.768Z,2.00
2019-05-17T22:48:11.373Z,2.10
2019-05-17T22:50:39.197Z,2.05
2019-05-17T22:53:07.123Z,1.98
2019-05-17T22:55:35.103Z,1.87
2019-05-17T22:58:03.007Z,2.00
2019-05-17T23:00:30.849Z,2.30
2019-05-17T23:02:58.664Z,2.10
2019-05-17T23:05:26.606Z,2.30
2019-05-17T23:07:54.587Z,2.20
2019-05-17T23:10:22.247Z,2.15
2019-05-17T23:12:50.069Z,2.15
2019-05-17T23:15:17.834Z,2.30
2019-05-17T23:17:45.598Z,2.10
2019-05-17T23:20:13.580Z,2.50
2019-05-17T23:22:41.379Z,2.40
2019-05-17T23:25:12.516Z,2.10
2019-05-17T23:27:40.286Z,2.17
2019-05-17T23:30:08.587Z,2.20
2019-05-17T23:32:38.606Z,2.37
2019-05-17T23:35:06.495Z,2.55
2019-05-17T23:37:34.146Z,2.35
2019-05-17T23:40:01.932Z,2.77
2019-05-17T23:42:29.871Z,2.47
2019-05-17T23:44:57.581Z,2.20
2019-05-17T23:47:26.096Z,2.62
2019-05-17T23:49:53.747Z,2.83
2019-05-17T23:52:21.389Z,3.17
2019-05-17T23:54:49.072Z,3.42
2019-05-17T23:57:16.715Z,3.90
2019-05-17T23:59:44.659Z,3.77
